createdAt,value
2023-04-18T00:02:26.119Z,99877.80
2023-04-18T00:04:54.638Z,99876.60
2023-04-18T00:07:22.687Z,99881.40
2023-04-18T00:09:50.529Z,99881.20
2023-04-18T00:12:18.933Z,99884.40
2023-04-18T00:14:46.964Z,99884.40
2023-04-18T00:17:16.164Z,99878.00
2023-04-18T00:19:44.068Z,99882.60
2023-04-18T00:22:13.254Z,99884.00
2023-04-18T00:24:41.289Z,99883.20
2023-04-18T00:27:09.187Z,99884.00
2023-04-18T00:29:37.174Z,99878.40
2023-04-18T00:32:05.483Z,99873.80
2023-04-18T00:34:33.443Z,99877.20
2023-04-18T00:37:01.375Z,99877.60
2023-04-18T00:39:29.355Z,99872.60
2023-04-18T00:41:57.304Z,99869.60
2023-04-18T00:44:25.320Z,99874.00
2023-04-18T00:46:53.301Z,99868.80
2023-04-18T00:49:21.638Z,99870.20
2023-04-18T00:51:49.981Z,99869.60
2023-04-18T00:54:20.713Z,99873.00
2023-04-18T00:56:48.794Z,99870.20
2023-04-18T00:59:16.887Z,99869.40
2023-04-18T01:01:45.363Z,99874.60
2023-04-18T01:04:14.279Z,99870.80
2023-04-18T01:06:44.190Z,99875.20
2023-04-18T01:09:12.578Z,99871.60
2023-04-18T01:11:40.524Z,99866.00
2023-04-18T01:14:10.560Z,99866.20
2023-04-18T01:16:38.706Z,99865.00
2023-04-18T01:19:06.774Z,99870.40
2023-04-18T01:21:36.272Z,99868.80
2023-04-18T01:24:07.832Z,99875.20
2023-04-18T01:26:35.982Z,99873.60
2023-04-18T01:29:05.913Z,99871.00
2023-04-18T01:31:36.145Z,99865.60
2023-04-18T01:34:04.601Z,99867.80
2023-04-18T01:36:32.765Z,99867.80
2023-04-18T01:39:00.815Z,99868.20
2023-04-18T01:41:32.901Z,99866.60
2023-04-18T01:44:01.366Z,99864.60
2023-04-18T01:46:29.606Z,99862.80
2023-04-18T01:48:57.631Z,99863.00
2023-04-18T01:51:26.526Z,99871.00
2023-04-18T01:53:54.679Z,99872.60
2023-04-18T01:56:22.588Z,99871.20
2023-04-18T01:58:50.797Z,99873.60
2023-04-18T02:01:18.878Z,99876.40
2023-04-18T02:03:46.983Z,99876.80
2023-04-18T02:06:15.204Z,99875.60
2023-04-18T02:08:43.135Z,99879.40
2023-04-18T02:11:11.086Z,99880.00
2023-04-18T02:13:39.079Z,99883.40
2023-04-18T02:16:12.845Z,99881.60
2023-04-18T02:18:42.616Z,99880.40
2023-04-18T02:21:11.444Z,99880.60
2023-04-18T02:23:39.339Z,99879.20
2023-04-18T02:26:07.318Z,99877.20
2023-04-18T02:28:39.108Z,99877.20
2023-04-18T02:31:07.794Z,99874.20
2023-04-18T02:33:35.677Z,99878.80
2023-04-18T02:36:03.868Z,99879.00
2023-04-18T02:38:31.900Z,99875.60
2023-04-18T02:40:59.777Z,99877.20
2023-04-18T02:43:28.289Z,99880.00
2023-04-18T02:45:56.510Z,99877.80
2023-04-18T02:48:24.537Z,99876.40
2023-04-18T02:50:52.773Z,99875.40
2023-04-18T02:53:24.005Z,99872.80
2023-04-18T02:55:54.644Z,99871.00
2023-04-18T02:58:25.525Z,99872.60
2023-04-18T03:01:20.096Z,99875.80
2023-04-18T03:03:59.241Z,99872.60
2023-04-18T03:06:36.536Z,99875.40
2023-04-18T03:09:04.652Z,99870.60
2023-04-18T03:11:34.229Z,99869.40
2023-04-18T03:14:02.214Z,99871.00
2023-04-18T03:16:36.623Z,99871.20
2023-04-18T03:19:05.359Z,99875.20
2023-04-18T03:21:34.788Z,99872.40
2023-04-18T03:24:02.740Z,99877.20
2023-04-18T03:26:30.713Z,99875.60
2023-04-18T03:28:58.658Z,99879.20
2023-04-18T03:31:26.800Z,99881.20
2023-04-18T03:33:54.912Z,99882.80
2023-04-18T03:36:25.473Z,99883.80
2023-04-18T03:38:54.964Z,99883.20
2023-04-18T03:41:23.871Z,99885.20
2023-04-18T03:43:51.882Z,99883.60
2023-04-18T03:46:22.050Z,99885.60
2023-04-18T03:48:52.072Z,99884.00
2023-04-18T03:51:20.003Z,99885.40
2023-04-18T03:54:43.207Z,99886.00
2023-04-18T03:57:11.657Z,99885.00
2023-04-18T03:59:39.576Z,99890.40
2023-04-18T04:02:07.872Z,99887.60
2023-04-18T04:04:36.199Z,99892.40
2023-04-18T04:07:04.080Z,99891.40
2023-04-18T04:09:32.071Z,99895.00
2023-04-18T04:12:02.319Z,99895.40
2023-04-18T04:14:30.638Z,99895.40
2023-04-18T04:16:58.636Z,99897.60
2023-04-18T04:19:26.639Z,99896.60
2023-04-18T04:22:10.926Z,99903.20
2023-04-18T04:24:39.700Z,99905.40
2023-04-18T04:27:10.579Z,99908.80
2023-04-18T04:29:39.239Z,99913.20
2023-04-18T04:32:10.723Z,99911.80
2023-04-18T04:34:41.484Z,99922.60
2023-04-18T04:37:14.163Z,99920.00
2023-04-18T04:39:52.497Z,99918.60
2023-04-18T04:42:46.062Z,99920.60
2023-04-18T04:45:20.091Z,99919.40
2023-04-18T04:47:48.081Z,99923.20
2023-04-18T04:50:16.181Z,99925.40
2023-04-18T04:52:44.306Z,99928.40
2023-04-18T04:55:12.472Z,99930.00
2023-04-18T04:57:41.487Z,99931.20
2023-04-18T05:00:21.761Z,99934.60
2023-04-18T05:02:50.909Z,99933.40
2023-04-18T05:05:19.590Z,99932.40
2023-04-18T05:07:48.054Z,99935.60
2023-04-18T05:10:17.001Z,99937.20
2023-04-18T05:12:45.187Z,99938.60
2023-04-18T05:15:15.393Z,99944.40
2023-04-18T05:17:43.327Z,99946.60
2023-04-18T05:20:11.620Z,99945.80
2023-04-18T05:22:39.662Z,99949.20
2023-04-18T05:25:08.493Z,99950.40
2023-04-18T05:27:36.377Z,99947.60
2023-04-18T05:30:04.744Z,99950.80
2023-04-18T05:32:32.765Z,99955.40
2023-04-18T05:35:01.125Z,99955.00
2023-04-18T05:37:29.459Z,99959.00
2023-04-18T05:39:59.301Z,99959.60
2023-04-18T05:42:28.421Z,99960.40
2023-04-18T05:44:56.226Z,99964.60
2023-04-18T05:47:27.026Z,99967.60
2023-04-18T05:49:55.406Z,99959.60
2023-04-18T05:52:23.314Z,99966.00
2023-04-18T05:54:51.640Z,99968.20
2023-04-18T05:57:19.584Z,99965.00
2023-04-18T05:59:47.310Z,99967.00
2023-04-18T06:02:15.309Z,99969.40
2023-04-18T06:04:44.106Z,99970.80
2023-04-18T06:07:11.982Z,99969.80
2023-04-18T06:09:40.015Z,99970.60
2023-04-18T06:12:07.788Z,99969.40
2023-04-18T06:14:35.737Z,99973.00
2023-04-18T06:17:03.709Z,99979.20
2023-04-18T06:19:31.820Z,99975.20
2023-04-18T06:22:02.653Z,99980.60
2023-04-18T06:24:31.363Z,99976.20
2023-04-18T06:26:59.902Z,99979.40
2023-04-18T06:29:30.483Z,99971.60
2023-04-18T06:31:59.521Z,99978.00
2023-04-18T06:34:27.503Z,99982.40
2023-04-18T06:36:55.590Z,99981.00
2023-04-18T06:39:23.544Z,99979.60
2023-04-18T06:41:51.581Z,99986.40
2023-04-18T06:44:28.324Z,99982.80
2023-04-18T06:46:56.205Z,99982.20
2023-04-18T06:49:26.420Z,99981.20
2023-04-18T06:51:57.497Z,99981.00
2023-04-18T06:54:25.629Z,99979.60
2023-04-18T06:56:55.140Z,99984.60
2023-04-18T06:59:23.494Z,99986.20
2023-04-18T07:01:51.524Z,99994.60
2023-04-18T07:04:19.868Z,99997.20
2023-04-18T07:06:48.247Z,99999.00
2023-04-18T07:09:16.405Z,99997.80
2023-04-18T07:11:44.681Z,100003.40
2023-04-18T07:14:12.922Z,100003.20
2023-04-18T07:16:41.186Z,100005.20
2023-04-18T07:19:09.414Z,100013.20
2023-04-18T07:21:38.763Z,100013.60
2023-04-18T07:24:07.773Z,100016.40
2023-04-18T07:26:36.043Z,100017.20
2023-04-18T07:29:04.445Z,100014.00
2023-04-18T07:31:32.725Z,100016.20
2023-04-18T07:34:00.728Z,100020.20
2023-04-18T07:36:28.687Z,100019.40
2023-04-18T07:38:56.720Z,100023.60
2023-04-18T07:41:24.595Z,100023.00
2023-04-18T07:43:52.459Z,100022.40
2023-04-18T07:46:20.519Z,100029.60
2023-04-18T07:48:48.715Z,100033.00
2023-04-18T07:51:16.757Z,100028.40
2023-04-18T07:53:44.780Z,100035.00
2023-04-18T07:56:14.482Z,100034.00
2023-04-18T07:58:42.566Z,100038.00
2023-04-18T08:01:13.644Z,100037.40
2023-04-18T08:03:44.818Z,100039.00
2023-04-18T08:06:12.867Z,100039.40
2023-04-18T08:08:40.892Z,100043.00
2023-04-18T08:11:08.872Z,100047.40
2023-04-18T08:13:36.801Z,100047.40
2023-04-18T08:16:04.938Z,100051.40
2023-04-18T08:18:32.937Z,100055.80
2023-04-18T08:21:00.916Z,100058.60
2023-04-18T08:23:28.806Z,100062.20
2023-04-18T08:25:56.595Z,100065.80
2023-04-18T08:28:24.540Z,100065.20
2023-04-18T08:30:55.091Z,100070.80
2023-04-18T08:33:23.873Z,100071.80
2023-04-18T08:35:52.056Z,100071.60
2023-04-18T08:38:20.260Z,100076.60
2023-04-18T08:40:48.176Z,100074.00
2023-04-18T08:43:16.204Z,100078.60
2023-04-18T08:45:44.746Z,100071.20
2023-04-18T08:48:13.920Z,100077.20
2023-04-18T08:50:42.189Z,100081.20
2023-04-18T08:53:10.322Z,100076.20
2023-04-18T08:55:38.261Z,100075.60
2023-04-18T08:58:07.092Z,100070.40
2023-04-18T09:00:35.546Z,100073.40
2023-04-18T09:03:04.083Z,100080.20
2023-04-18T09:05:32.304Z,100076.80
2023-04-18T09:08:00.529Z,100078.20
2023-04-18T09:10:33.533Z,100079.80
2023-04-18T09:13:05.637Z,100081.20
2023-04-18T09:15:35.991Z,100075.60
2023-04-18T09:18:04.080Z,100084.00
2023-04-18T09:20:41.438Z,100082.20
2023-04-18T09:23:16.617Z,100084.40
2023-04-18T09:25:46.911Z,100085.00
2023-04-18T09:28:31.200Z,100086.00
2023-04-18T09:31:12.090Z,100083.20
2023-04-18T09:33:43.089Z,100083.40
2023-04-18T09:36:21.575Z,100082.60
2023-04-18T09:38:50.415Z,100078.80
2023-04-18T09:41:21.219Z,100079.60
2023-04-18T09:43:49.588Z,100081.00
2023-04-18T09:46:17.889Z,100083.00
2023-04-18T09:48:46.081Z,100079.00
2023-04-18T09:51:17.368Z,100083.20
2023-04-18T09:53:47.449Z,100079.00
2023-04-18T09:56:20.188Z,100081.00
2023-04-18T09:58:48.396Z,100078.60
2023-04-18T10:01:16.841Z,100078.60
2023-04-18T10:03:46.784Z,100081.80
2023-04-18T10:06:16.461Z,100078.80
2023-04-18T10:08:45.301Z,100079.40
2023-04-18T10:11:13.285Z,100077.40
2023-04-18T10:13:44.163Z,100077.00
2023-04-18T10:16:14.656Z,100078.60
2023-04-18T10:18:42.945Z,100075.40
2023-04-18T10:21:11.628Z,100077.80
2023-04-18T10:23:40.290Z,100075.80
2023-04-18T10:26:09.316Z,100076.60
2023-04-18T10:28:57.300Z,100072.60
2023-04-18T10:31:28.292Z,100075.20
2023-04-18T10:36:31.244Z,100071.60
2023-04-18T10:39:20.059Z,100069.00
2023-04-18T10:41:49.456Z,100067.60
2023-04-18T10:44:23.196Z,100067.00
2023-04-18T10:46:51.782Z,100073.00
2023-04-18T10:49:26.364Z,100065.40
2023-04-18T10:51:58.452Z,100063.20
2023-04-18T10:54:30.904Z,100065.00
2023-04-18T10:57:01.950Z,100060.00
2023-04-18T10:59:31.101Z,100061.80
2023-04-18T11:02:05.619Z,100058.60
2023-04-18T11:04:33.665Z,100060.40
2023-04-18T11:07:01.675Z,100059.60
2023-04-18T11:09:29.604Z,100061.20
2023-04-18T11:12:04.707Z,100058.80
2023-04-18T11:14:49.331Z,100060.40
2023-04-18T11:17:22.062Z,100060.60
2023-04-18T11:19:51.942Z,100058.60
2023-04-18T11:22:19.825Z,100064.40
2023-04-18T11:24:47.853Z,100062.60
2023-04-18T11:27:16.197Z,100059.80
2023-04-18T11:29:44.059Z,100057.20
2023-04-18T11:32:12.095Z,100057.40
2023-04-18T11:34:40.075Z,100059.40
2023-04-18T11:37:08.783Z,100051.00
2023-04-18T11:39:45.626Z,100057.20
2023-04-18T11:42:13.608Z,100052.60
2023-04-18T11:44:45.838Z,100050.00
2023-04-18T11:47:27.358Z,100052.00
2023-04-18T11:49:59.486Z,100051.80
2023-04-18T11:52:28.388Z,100041.40
2023-04-18T11:54:57.913Z,100037.20
2023-04-18T11:57:28.675Z,100034.80
2023-04-18T11:59:59.035Z,100036.80
2023-04-18T12:02:44.133Z,100038.00
2023-04-18T12:05:14.827Z,100034.20
2023-04-18T12:07:45.157Z,100032.60
2023-04-18T12:10:22.327Z,100036.40
2023-04-18T12:12:51.395Z,100029.00
2023-04-18T12:15:19.539Z,100023.80
2023-04-18T12:17:54.645Z,100024.60
2023-04-18T12:20:24.924Z,100021.20
2023-04-18T12:22:54.377Z,100018.80
2023-04-18T12:25:27.104Z,100015.20
2023-04-18T12:28:03.804Z,100019.60
2023-04-18T12:30:34.604Z,100015.00
2023-04-18T12:33:04.418Z,100019.40
2023-04-18T12:35:32.726Z,100014.00
2023-04-18T12:38:01.120Z,100009.40
2023-04-18T12:40:29.304Z,100004.00
2023-04-18T12:42:57.316Z,100003.20
2023-04-18T12:45:25.839Z,100000.60
2023-04-18T12:47:53.823Z,100005.40
2023-04-18T12:50:23.862Z,100003.60
2023-04-18T12:52:57.170Z,100009.20
2023-04-18T12:55:25.987Z,100008.00
2023-04-18T12:57:54.885Z,100009.20
2023-04-18T13:00:25.003Z,100010.40
2023-04-18T13:02:53.010Z,100015.40
2023-04-18T13:05:22.572Z,100010.80
2023-04-18T13:07:58.557Z,100007.20
2023-04-18T13:10:29.961Z,100008.80
2023-04-18T13:12:58.526Z,100011.00
2023-04-18T13:15:27.615Z,100007.20
2023-04-18T13:18:04.563Z,100009.00
2023-04-18T13:20:33.255Z,100015.00
2023-04-18T13:23:04.475Z,100009.80
2023-04-18T13:25:32.531Z,100010.80
2023-04-18T13:28:01.146Z,100008.80
2023-04-18T13:30:29.440Z,100008.00
2023-04-18T13:32:57.402Z,100006.80
2023-04-18T13:35:25.491Z,100005.40
2023-04-18T13:37:53.639Z,100006.40
2023-04-18T13:40:21.747Z,100008.40
2023-04-18T13:42:49.639Z,100006.20
2023-04-18T13:45:19.221Z,100006.20
2023-04-18T13:47:47.537Z,100002.80
2023-04-18T13:50:15.491Z,100000.80
2023-04-18T13:52:43.467Z,99995.00
2023-04-18T13:55:12.503Z,99997.60
2023-04-18T13:57:41.296Z,99991.00
2023-04-18T14:00:11.192Z,99991.40
2023-04-18T14:02:42.312Z,99989.20
2023-04-18T14:05:10.977Z,99990.60
2023-04-18T14:07:39.082Z,99988.80
2023-04-18T14:10:07.714Z,99987.00
2023-04-18T14:12:35.761Z,99989.60
2023-04-18T14:15:04.048Z,99990.80
2023-04-18T14:17:32.058Z,99989.00
2023-04-18T14:20:00.010Z,99989.40
2023-04-18T14:22:28.313Z,99988.60
2023-04-18T14:24:56.367Z,99989.80
2023-04-18T14:27:26.275Z,99993.20
2023-04-18T14:29:54.409Z,99987.40
2023-04-18T14:32:23.852Z,99992.00
2023-04-18T14:34:53.664Z,99992.20
2023-04-18T14:37:22.429Z,99996.40
2023-04-18T14:39:50.607Z,99994.40
2023-04-18T14:42:19.281Z,99995.20
2023-04-18T14:44:47.262Z,100001.40
2023-04-18T14:47:16.125Z,99999.80
2023-04-18T14:49:44.059Z,99998.80
2023-04-18T14:52:12.147Z,99999.20
2023-04-18T14:54:40.140Z,99998.80
2023-04-18T14:57:08.728Z,99999.20
2023-04-18T14:59:36.789Z,99999.20
2023-04-18T15:02:05.044Z,99999.80
2023-04-18T15:04:33.428Z,99998.20
2023-04-18T15:07:02.783Z,99995.40
2023-04-18T15:09:30.871Z,99999.20
2023-04-18T15:12:00.253Z,99993.40
2023-04-18T15:14:28.257Z,99989.80
2023-04-18T15:16:57.725Z,99996.80
2023-04-18T15:19:25.738Z,99993.40
2023-04-18T15:21:53.791Z,99989.40
2023-04-18T15:24:21.683Z,99991.60
2023-04-18T15:26:49.621Z,99989.40
2023-04-18T15:29:17.542Z,99984.00
2023-04-18T15:31:45.764Z,99984.80
2023-04-18T15:34:13.933Z,99983.40
2023-04-18T15:36:42.300Z,99985.80
2023-04-18T15:39:13.251Z,99986.40
2023-04-18T15:41:42.187Z,99985.00
2023-04-18T15:44:10.079Z,99981.80
2023-04-18T15:46:38.063Z,99980.00
2023-04-18T15:49:06.624Z,99978.40
2023-04-18T15:51:34.702Z,99981.00
2023-04-18T15:54:03.310Z,99980.60
2023-04-18T15:56:33.892Z,99981.80
2023-04-18T15:59:06.797Z,99982.20
2023-04-18T16:01:35.869Z,99985.40
2023-04-18T16:04:04.207Z,99982.40
2023-04-18T16:06:32.282Z,99980.60
2023-04-18T16:09:00.495Z,99979.20
2023-04-18T16:11:29.037Z,99976.00
2023-04-18T16:13:57.128Z,99980.20
2023-04-18T16:16:26.080Z,99982.40
2023-04-18T16:18:54.112Z,99981.60
2023-04-18T16:21:22.127Z,99982.60
2023-04-18T16:23:50.117Z,99986.80
2023-04-18T16:26:17.992Z,99986.20
2023-04-18T16:28:46.428Z,99983.00
2023-04-18T16:31:14.502Z,99983.40
2023-04-18T16:33:42.592Z,99987.40
2023-04-18T16:36:10.675Z,99986.00
2023-04-18T16:38:38.730Z,99983.80
2023-04-18T16:41:06.556Z,99985.60
2023-04-18T16:43:36.614Z,99988.60
2023-04-18T16:46:04.875Z,99987.00
2023-04-18T16:48:32.809Z,99988.60
2023-04-18T16:51:00.899Z,99985.80
2023-04-18T16:53:28.794Z,99989.40
2023-04-18T16:55:56.805Z,99986.80
2023-04-18T16:58:26.152Z,99985.80
2023-04-18T17:00:54.087Z,99982.40
2023-04-18T17:03:22.550Z,99981.60
2023-04-18T17:05:52.030Z,99979.60
2023-04-18T17:08:20.081Z,99977.80
2023-04-18T17:10:49.641Z,99981.20
2023-04-18T17:13:18.758Z,99983.20
2023-04-18T17:15:47.001Z,99980.80
2023-04-18T17:18:14.935Z,99981.20
2023-04-18T17:20:42.860Z,99980.00
2023-04-18T17:23:10.753Z,99978.20
2023-04-18T17:25:38.683Z,99983.60
2023-04-18T17:28:06.623Z,99987.00
2023-04-18T17:30:34.490Z,99984.00
2023-04-18T17:33:02.438Z,99985.40
2023-04-18T17:35:30.597Z,99984.00
2023-04-18T17:37:58.639Z,99981.80
2023-04-18T17:40:26.776Z,99985.00
2023-04-18T17:42:54.818Z,99985.20
2023-04-18T17:45:24.223Z,99984.20
2023-04-18T17:47:52.100Z,99986.20
2023-04-18T17:50:20.028Z,99985.00
2023-04-18T17:52:48.027Z,99993.40
2023-04-18T17:55:16.776Z,99994.60
2023-04-18T17:57:44.822Z,99997.00
2023-04-18T18:00:14.609Z,100004.60
2023-04-18T18:02:42.966Z,100001.40
2023-04-18T18:05:14.282Z,100006.60
2023-04-18T18:07:47.488Z,100003.40
2023-04-18T18:10:23.290Z,100008.40
2023-04-18T18:12:53.917Z,100007.00
2023-04-18T18:15:22.139Z,100004.20
2023-04-18T18:17:51.002Z,100007.00
2023-04-18T18:20:19.606Z,100007.40
2023-04-18T18:22:47.506Z,100004.40
2023-04-18T18:25:15.647Z,100009.20
2023-04-18T18:27:43.857Z,100011.40
2023-04-18T18:30:11.848Z,100010.80
2023-04-18T18:32:39.771Z,100010.40
2023-04-18T18:35:08.108Z,100015.40
2023-04-18T18:37:37.709Z,100011.80
2023-04-18T18:40:06.574Z,100010.40
2023-04-18T18:42:34.547Z,100009.40
2023-04-18T18:45:03.714Z,100006.60
2023-04-18T18:47:31.857Z,100007.20
2023-04-18T18:49:59.711Z,100011.40
2023-04-18T18:52:29.807Z,100010.80
2023-04-18T18:54:57.959Z,100010.40
2023-04-18T18:57:26.197Z,100011.40
2023-04-18T18:59:56.044Z,100010.00
2023-04-18T19:02:24.533Z,100012.40
2023-04-18T19:04:52.819Z,100013.80
2023-04-18T19:07:21.686Z,100011.00
2023-04-18T19:09:49.695Z,100009.40
2023-04-18T19:12:17.853Z,100013.60
2023-04-18T19:14:46.866Z,100013.00
2023-04-18T19:17:17.669Z,100013.40
2023-04-18T19:19:45.791Z,100016.60
2023-04-18T19:22:13.869Z,100011.60
2023-04-18T19:24:45.703Z,100010.00
2023-04-18T19:27:13.750Z,100011.40
2023-04-18T19:29:42.932Z,100018.20
2023-04-18T19:32:11.099Z,100014.20
2023-04-18T19:34:39.170Z,100011.80
2023-04-18T19:37:07.361Z,100010.60
2023-04-18T19:39:35.427Z,100007.20
2023-04-18T19:42:05.061Z,100006.40
2023-04-18T19:44:33.049Z,100008.00
2023-04-18T19:47:03.565Z,100009.40
2023-04-18T19:49:31.482Z,100009.00
2023-04-18T19:51:59.605Z,100007.60
2023-04-18T19:54:27.502Z,100004.20
2023-04-18T19:56:55.880Z,100003.80
2023-04-18T19:59:23.841Z,100001.00
2023-04-18T20:01:51.837Z,100000.60
2023-04-18T20:04:22.510Z,99999.80
2023-04-18T20:06:52.008Z,100002.60
2023-04-18T20:09:20.067Z,100001.80
2023-04-18T20:11:48.577Z,100001.40
2023-04-18T20:14:16.616Z,100002.00
2023-04-18T20:16:45.977Z,100002.00
2023-04-18T20:19:14.939Z,99999.60
2023-04-18T20:21:43.068Z,100002.20
2023-04-18T20:24:11.024Z,100002.60
2023-04-18T20:26:39.077Z,99998.80
2023-04-18T20:29:07.274Z,99998.80
2023-04-18T20:31:37.414Z,99998.40
2023-04-18T20:34:05.764Z,99998.00
2023-04-18T20:36:34.640Z,99996.00
2023-04-18T20:39:03.480Z,99994.20
2023-04-18T20:41:34.982Z,99996.40
2023-04-18T20:44:10.142Z,99991.60
2023-04-18T20:46:38.168Z,99993.80
2023-04-18T20:49:09.669Z,99992.40
2023-04-18T20:51:38.173Z,99988.00
2023-04-18T20:54:06.197Z,99989.40
2023-04-18T20:56:36.526Z,99982.60
2023-04-18T20:59:05.027Z,99982.60
2023-04-18T21:01:32.965Z,99983.00
2023-04-18T21:04:01.104Z,99979.60
2023-04-18T21:06:29.588Z,99982.40
2023-04-18T21:08:57.717Z,99979.60
2023-04-18T21:11:25.761Z,99975.80
2023-04-18T21:13:53.719Z,99974.80
2023-04-18T21:16:24.345Z,99969.60
2023-04-18T21:18:54.162Z,99964.60
2023-04-18T21:21:22.151Z,99968.20
2023-04-18T21:23:50.125Z,99966.60
2023-04-18T21:26:19.035Z,99968.00
2023-04-18T21:28:53.341Z,99966.60
2023-04-18T21:31:21.437Z,99964.80
2023-04-18T21:33:56.087Z,99961.40
2023-04-18T21:36:24.861Z,99957.20
2023-04-18T21:38:53.525Z,99955.20
2023-04-18T21:41:23.757Z,99953.20
2023-04-18T21:43:51.957Z,99954.00
2023-04-18T21:46:20.022Z,99953.60
2023-04-18T21:48:48.200Z,99954.80
2023-04-18T21:51:16.615Z,99952.60
2023-04-18T21:53:44.423Z,99951.40
2023-04-18T21:56:12.498Z,99950.80
2023-04-18T21:58:40.777Z,99952.80
2023-04-18T22:01:08.863Z,99948.80
2023-04-18T22:03:37.131Z,99945.20
2023-04-18T22:06:05.754Z,99946.80
2023-04-18T22:08:34.121Z,99945.40
2023-04-18T22:11:02.349Z,99947.60
2023-04-18T22:13:32.941Z,99950.60
2023-04-18T22:16:04.840Z,99947.20
2023-04-18T22:18:37.653Z,99947.80
2023-04-18T22:21:06.901Z,99946.40
2023-04-18T22:23:34.841Z,99948.20
2023-04-18T22:26:02.922Z,99939.00
2023-04-18T22:28:30.997Z,99937.60
2023-04-18T22:30:58.980Z,99935.80
2023-04-18T22:33:26.935Z,99935.80
2023-04-18T22:35:55.666Z,99937.20
2023-04-18T22:38:26.249Z,99931.80
2023-04-18T22:40:54.441Z,99930.20
2023-04-18T22:43:22.936Z,99924.80
2023-04-18T22:45:51.874Z,99921.00
2023-04-18T22:48:23.753Z,99923.60
2023-04-18T22:50:51.658Z,99922.80
2023-04-18T22:53:23.653Z,99923.60
2023-04-18T22:55:51.692Z,99920.60
2023-04-18T22:58:19.840Z,99920.60
2023-04-18T23:00:47.899Z,99915.60
2023-04-18T23:03:15.957Z,99910.20
2023-04-18T23:05:44.042Z,99910.80
2023-04-18T23:08:13.163Z,99912.00
2023-04-18T23:10:40.991Z,99904.60
2023-04-18T23:13:08.982Z,99903.20
2023-04-18T23:15:36.936Z,99905.00
2023-04-18T23:18:04.963Z,99900.00
2023-04-18T23:20:32.905Z,99897.20
2023-04-18T23:23:00.960Z,99894.80
2023-04-18T23:25:28.886Z,99894.60
2023-04-18T23:27:57.227Z,99891.00
2023-04-18T23:30:25.940Z,99894.20
2023-04-18T23:32:54.094Z,99892.60
2023-04-18T23:35:22.043Z,99890.60
2023-04-18T23:37:50.236Z,99885.20
2023-04-18T23:40:18.290Z,99884.60
2023-04-18T23:42:47.228Z,99881.00
2023-04-18T23:45:16.069Z,99877.20
2023-04-18T23:47:44.056Z,99876.80
2023-04-18T23:50:12.650Z,99872.60
2023-04-18T23:52:40.685Z,99869.00
2023-04-18T23:55:09.238Z,99865.20
2023-04-18T23:57:37.315Z,99870.20
